sensor_id;sensor_type;location;lat;lon;timestamp;P1;durP1;ratioP1;P2;durP2;ratioP2
19593;SDS011;9944;48.240;16.478;2024-01-30T00:03:07;9.25;;;5.53;;
19593;SDS011;9944;48.240;16.478;2024-01-30T00:07:30;10.57;;;6.28;;
19593;SDS011;9944;48.240;16.478;2024-01-30T00:11:55;12.13;;;6.25;;
19593;SDS011;9944;48.240;16.478;2024-01-30T00:16:20;10.77;;;5.90;;
19593;SDS011;9944;48.240;16.478;2024-01-30T00:20:45;10.35;;;5.80;;
19593;SDS011;9944;48.240;16.478;2024-01-30T00:25:08;9.43;;;5.80;;
19593;SDS011;9944;48.240;16.478;2024-01-30T00:29:33;10.05;;;6.15;;
19593;SDS011;9944;48.240;16.478;2024-01-30T00:33:57;12.27;;;5.90;;
19593;SDS011;9944;48.240;16.478;2024-01-30T00:38:20;8.90;;;5.78;;
19593;SDS011;9944;48.240;16.478;2024-01-30T00:42:44;9.98;;;5.70;;
19593;SDS011;9944;48.240;16.478;2024-01-30T00:47:09;11.15;;;5.82;;
19593;SDS011;9944;48.240;16.478;2024-01-30T00:51:33;8.07;;;5.50;;
19593;SDS011;9944;48.240;16.478;2024-01-30T00:55:56;10.50;;;5.63;;
19593;SDS011;9944;48.240;16.478;2024-01-30T01:00:20;7.82;;;5.20;;
19593;SDS011;9944;48.240;16.478;2024-01-30T01:04:46;11.82;;;6.20;;
19593;SDS011;9944;48.240;16.478;2024-01-30T01:09:10;10.05;;;6.03;;
19593;SDS011;9944;48.240;16.478;2024-01-30T01:13:34;10.18;;;5.88;;
19593;SDS011;9944;48.240;16.478;2024-01-30T01:17:57;10.60;;;5.85;;
19593;SDS011;9944;48.240;16.478;2024-01-30T01:22:23;9.88;;;6.05;;
19593;SDS011;9944;48.240;16.478;2024-01-30T01:26:46;13.07;;;6.25;;
19593;SDS011;9944;48.240;16.478;2024-01-30T01:32:08;12.40;;;6.13;;
19593;SDS011;9944;48.240;16.478;2024-01-30T01:36:32;12.60;;;6.10;;
19593;SDS011;9944;48.240;16.478;2024-01-30T01:40:57;10.85;;;6.55;;
19593;SDS011;9944;48.240;16.478;2024-01-30T01:45:21;10.07;;;5.90;;
19593;SDS011;9944;48.240;16.478;2024-01-30T01:49:45;9.70;;;5.50;;
19593;SDS011;9944;48.240;16.478;2024-01-30T01:54:09;10.27;;;6.15;;
19593;SDS011;9944;48.240;16.478;2024-01-30T01:58:34;10.98;;;5.47;;
19593;SDS011;9944;48.240;16.478;2024-01-30T02:02:59;9.30;;;5.57;;
19593;SDS011;9944;48.240;16.478;2024-01-30T02:07:23;11.05;;;5.97;;
19593;SDS011;9944;48.240;16.478;2024-01-30T02:11:47;9.05;;;5.63;;
19593;SDS011;9944;48.240;16.478;2024-01-30T02:16:12;13.00;;;5.88;;
19593;SDS011;9944;48.240;16.478;2024-01-30T02:20:36;10.57;;;5.80;;
19593;SDS011;9944;48.240;16.478;2024-01-30T02:25:03;10.40;;;6.15;;
19593;SDS011;9944;48.240;16.478;2024-01-30T02:29:27;10.45;;;5.97;;
19593;SDS011;9944;48.240;16.478;2024-01-30T02:33:51;11.65;;;6.57;;
19593;SDS011;9944;48.240;16.478;2024-01-30T02:38:15;12.27;;;6.32;;
19593;SDS011;9944;48.240;16.478;2024-01-30T02:42:40;11.82;;;6.60;;
19593;SDS011;9944;48.240;16.478;2024-01-30T02:47:04;10.65;;;6.32;;
19593;SDS011;9944;48.240;16.478;2024-01-30T02:51:28;13.10;;;6.68;;
19593;SDS011;9944;48.240;16.478;2024-01-30T02:55:52;13.40;;;6.68;;
19593;SDS011;9944;48.240;16.478;2024-01-30T03:00:17;11.20;;;7.07;;
19593;SDS011;9944;48.240;16.478;2024-01-30T03:04:42;10.43;;;6.00;;
19593;SDS011;9944;48.240;16.478;2024-01-30T03:09:06;12.85;;;6.88;;
19593;SDS011;9944;48.240;16.478;2024-01-30T03:13:31;15.18;;;6.75;;
19593;SDS011;9944;48.240;16.478;2024-01-30T03:17:57;12.98;;;6.35;;
19593;SDS011;9944;48.240;16.478;2024-01-30T03:22:21;14.93;;;6.88;;
19593;SDS011;9944;48.240;16.478;2024-01-30T03:26:45;13.98;;;7.43;;
19593;SDS011;9944;48.240;16.478;2024-01-30T03:31:08;13.15;;;6.65;;
19593;SDS011;9944;48.240;16.478;2024-01-30T03:35:33;11.63;;;6.70;;
19593;SDS011;9944;48.240;16.478;2024-01-30T03:39:57;12.57;;;6.32;;
19593;SDS011;9944;48.240;16.478;2024-01-30T03:44:21;13.35;;;7.07;;
19593;SDS011;9944;48.240;16.478;2024-01-30T03:48:45;15.23;;;7.25;;
19593;SDS011;9944;48.240;16.478;2024-01-30T03:53:10;12.25;;;7.43;;
19593;SDS011;9944;48.240;16.478;2024-01-30T03:57:34;13.15;;;7.30;;
19593;SDS011;9944;48.240;16.478;2024-01-30T04:01:58;17.45;;;7.28;;
19593;SDS011;9944;48.240;16.478;2024-01-30T04:06:22;12.55;;;6.75;;
19593;SDS011;9944;48.240;16.478;2024-01-30T04:10:47;14.90;;;7.20;;
19593;SDS011;9944;48.240;16.478;2024-01-30T04:15:11;12.77;;;7.47;;
19593;SDS011;9944;48.240;16.478;2024-01-30T04:19:37;11.93;;;7.27;;
19593;SDS011;9944;48.240;16.478;2024-01-30T04:24:01;13.93;;;7.75;;
19593;SDS011;9944;48.240;16.478;2024-01-30T04:28:26;12.07;;;6.95;;
19593;SDS011;9944;48.240;16.478;2024-01-30T04:32:49;12.52;;;7.00;;
19593;SDS011;9944;48.240;16.478;2024-01-30T04:37:13;14.07;;;7.32;;
19593;SDS011;9944;48.240;16.478;2024-01-30T04:41:38;12.18;;;7.05;;
19593;SDS011;9944;48.240;16.478;2024-01-30T04:46:03;12.07;;;6.65;;
19593;SDS011;9944;48.240;16.478;2024-01-30T04:50:27;12.52;;;7.45;;
19593;SDS011;9944;48.240;16.478;2024-01-30T04:54:52;11.32;;;6.72;;
19593;SDS011;9944;48.240;16.478;2024-01-30T04:59:16;10.23;;;6.50;;
19593;SDS011;9944;48.240;16.478;2024-01-30T05:03:41;10.97;;;6.73;;
19593;SDS011;9944;48.240;16.478;2024-01-30T05:08:05;12.23;;;7.03;;
19593;SDS011;9944;48.240;16.478;2024-01-30T05:12:29;15.48;;;7.60;;
19593;SDS011;9944;48.240;16.478;2024-01-30T05:16:53;12.68;;;6.95;;
19593;SDS011;9944;48.240;16.478;2024-01-30T05:21:18;11.10;;;6.87;;
19593;SDS011;9944;48.240;16.478;2024-01-30T05:25:42;13.73;;;7.10;;
19593;SDS011;9944;48.240;16.478;2024-01-30T05:30:06;14.25;;;6.97;;
19593;SDS011;9944;48.240;16.478;2024-01-30T05:34:31;12.20;;;6.90;;
19593;SDS011;9944;48.240;16.478;2024-01-30T05:38:57;12.63;;;6.87;;
19593;SDS011;9944;48.240;16.478;2024-01-30T05:43:21;10.30;;;6.87;;
19593;SDS011;9944;48.240;16.478;2024-01-30T05:47:44;11.97;;;6.63;;
19593;SDS011;9944;48.240;16.478;2024-01-30T05:52:08;12.87;;;7.03;;
19593;SDS011;9944;48.240;16.478;2024-01-30T05:56:34;14.33;;;6.90;;
19593;SDS011;9944;48.240;16.478;2024-01-30T06:00:58;12.90;;;7.20;;
19593;SDS011;9944;48.240;16.478;2024-01-30T06:05:21;13.47;;;6.87;;
19593;SDS011;9944;48.240;16.478;2024-01-30T06:09:45;13.67;;;7.30;;
19593;SDS011;9944;48.240;16.478;2024-01-30T06:14:11;15.53;;;7.27;;
19593;SDS011;9944;48.240;16.478;2024-01-30T06:18:35;12.77;;;7.40;;
19593;SDS011;9944;48.240;16.478;2024-01-30T06:22:59;13.23;;;7.13;;
19593;SDS011;9944;48.240;16.478;2024-01-30T06:27:22;13.67;;;7.10;;
19593;SDS011;9944;48.240;16.478;2024-01-30T06:31:48;14.57;;;7.40;;
19593;SDS011;9944;48.240;16.478;2024-01-30T06:36:11;13.70;;;6.93;;
19593;SDS011;9944;48.240;16.478;2024-01-30T06:40:35;12.07;;;7.03;;
19593;SDS011;9944;48.240;16.478;2024-01-30T06:44:59;13.77;;;7.13;;
19593;SDS011;9944;48.240;16.478;2024-01-30T06:49:25;14.33;;;7.57;;
19593;SDS011;9944;48.240;16.478;2024-01-30T06:53:49;16.00;;;7.53;;
19593;SDS011;9944;48.240;16.478;2024-01-30T06:58:13;13.80;;;7.60;;
19593;SDS011;9944;48.240;16.478;2024-01-30T07:02:36;14.67;;;7.40;;
19593;SDS011;9944;48.240;16.478;2024-01-30T07:07:02;14.35;;;7.55;;
19593;SDS011;9944;48.240;16.478;2024-01-30T07:11:27;13.80;;;7.70;;
19593;SDS011;9944;48.240;16.478;2024-01-30T07:15:51;14.37;;;7.10;;
19593;SDS011;9944;48.240;16.478;2024-01-30T07:20:15;12.60;;;7.70;;
19593;SDS011;9944;48.240;16.478;2024-01-30T07:24:43;11.53;;;7.00;;
19593;SDS011;9944;48.240;16.478;2024-01-30T07:29:10;14.23;;;7.90;;
19593;SDS011;9944;48.240;16.478;2024-01-30T07:33:34;13.20;;;7.18;;
19593;SDS011;9944;48.240;16.478;2024-01-30T07:37:58;14.13;;;7.63;;
19593;SDS011;9944;48.240;16.478;2024-01-30T07:42:23;12.75;;;7.25;;
19593;SDS011;9944;48.240;16.478;2024-01-30T07:46:48;13.43;;;7.23;;
19593;SDS011;9944;48.240;16.478;2024-01-30T07:51:12;13.43;;;7.47;;
19593;SDS011;9944;48.240;16.478;2024-01-30T08:00:22;15.27;;;7.57;;
19593;SDS011;9944;48.240;16.478;2024-01-30T08:04:46;13.80;;;7.47;;
19593;SDS011;9944;48.240;16.478;2024-01-30T08:09:12;13.40;;;7.20;;
19593;SDS011;9944;48.240;16.478;2024-01-30T08:13:35;12.63;;;6.93;;
19593;SDS011;9944;48.240;16.478;2024-01-30T08:18:00;14.02;;;7.03;;
19593;SDS011;9944;48.240;16.478;2024-01-30T08:22:24;10.60;;;6.40;;
19593;SDS011;9944;48.240;16.478;2024-01-30T08:26:48;12.30;;;6.47;;
19593;SDS011;9944;48.240;16.478;2024-01-30T08:31:12;10.55;;;6.32;;
19593;SDS011;9944;48.240;16.478;2024-01-30T08:35:37;11.77;;;7.15;;
19593;SDS011;9944;48.240;16.478;2024-01-30T08:40:01;13.07;;;7.25;;
19593;SDS011;9944;48.240;16.478;2024-01-30T08:44:27;13.07;;;7.00;;
19593;SDS011;9944;48.240;16.478;2024-01-30T08:48:51;12.13;;;6.65;;
19593;SDS011;9944;48.240;16.478;2024-01-30T08:53:16;12.25;;;6.68;;
19593;SDS011;9944;48.240;16.478;2024-01-30T08:57:40;10.57;;;6.70;;
19593;SDS011;9944;48.240;16.478;2024-01-30T09:02:04;13.70;;;6.97;;
19593;SDS011;9944;48.240;16.478;2024-01-30T09:06:33;15.25;;;6.45;;
19593;SDS011;9944;48.240;16.478;2024-01-30T09:10:59;11.15;;;6.70;;
19593;SDS011;9944;48.240;16.478;2024-01-30T09:15:22;13.43;;;7.10;;
19593;SDS011;9944;48.240;16.478;2024-01-30T09:19:48;10.13;;;6.30;;
19593;SDS011;9944;48.240;16.478;2024-01-30T09:24:12;11.50;;;6.32;;
19593;SDS011;9944;48.240;16.478;2024-01-30T09:28:37;13.02;;;6.18;;
19593;SDS011;9944;48.240;16.478;2024-01-30T09:33:01;10.98;;;6.20;;
19593;SDS011;9944;48.240;16.478;2024-01-30T09:37:24;9.57;;;6.40;;
19593;SDS011;9944;48.240;16.478;2024-01-30T09:41:49;10.52;;;6.05;;
19593;SDS011;9944;48.240;16.478;2024-01-30T09:46:26;12.30;;;6.45;;
19593;SDS011;9944;48.240;16.478;2024-01-30T09:50:51;15.25;;;6.80;;
19593;SDS011;9944;48.240;16.478;2024-01-30T09:55:15;11.32;;;6.60;;
19593;SDS011;9944;48.240;16.478;2024-01-30T09:59:39;11.85;;;6.13;;
19593;SDS011;9944;48.240;16.478;2024-01-30T10:04:06;10.35;;;6.45;;
19593;SDS011;9944;48.240;16.478;2024-01-30T10:08:30;10.95;;;6.65;;
19593;SDS011;9944;48.240;16.478;2024-01-30T10:12:55;10.35;;;5.88;;
19593;SDS011;9944;48.240;16.478;2024-01-30T10:17:18;12.18;;;6.57;;
19593;SDS011;9944;48.240;16.478;2024-01-30T10:21:56;12.13;;;6.28;;
19593;SDS011;9944;48.240;16.478;2024-01-30T10:26:20;13.35;;;6.68;;
19593;SDS011;9944;48.240;16.478;2024-01-30T10:30:44;13.82;;;6.55;;
19593;SDS011;9944;48.240;16.478;2024-01-30T10:35:08;11.63;;;6.43;;
19593;SDS011;9944;48.240;16.478;2024-01-30T10:39:34;11.63;;;5.68;;
19593;SDS011;9944;48.240;16.478;2024-01-30T10:44:02;12.93;;;6.43;;
19593;SDS011;9944;48.240;16.478;2024-01-30T10:48:31;10.82;;;6.55;;
19593;SDS011;9944;48.240;16.478;2024-01-30T10:53:02;9.77;;;5.82;;
19593;SDS011;9944;48.240;16.478;2024-01-30T10:57:29;10.30;;;6.03;;
19593;SDS011;9944;48.240;16.478;2024-01-30T11:01:53;11.43;;;6.38;;
19593;SDS011;9944;48.240;16.478;2024-01-30T11:06:17;10.25;;;5.93;;
19593;SDS011;9944;48.240;16.478;2024-01-30T11:10:45;10.23;;;5.80;;
19593;SDS011;9944;48.240;16.478;2024-01-30T11:15:11;16.00;;;6.18;;
19593;SDS011;9944;48.240;16.478;2024-01-30T11:19:36;9.57;;;5.95;;
19593;SDS011;9944;48.240;16.478;2024-01-30T11:24:00;12.45;;;6.57;;
19593;SDS011;9944;48.240;16.478;2024-01-30T11:28:30;10.52;;;5.70;;
19593;SDS011;9944;48.240;16.478;2024-01-30T11:33:01;11.95;;;5.82;;
19593;SDS011;9944;48.240;16.478;2024-01-30T11:37:29;10.88;;;6.10;;
19593;SDS011;9944;48.240;16.478;2024-01-30T11:41:54;11.48;;;5.72;;
19593;SDS011;9944;48.240;16.478;2024-01-30T11:46:19;9.80;;;6.13;;
19593;SDS011;9944;48.240;16.478;2024-01-30T11:50:44;9.40;;;5.30;;
19593;SDS011;9944;48.240;16.478;2024-01-30T11:55:08;12.52;;;6.18;;
19593;SDS011;9944;48.240;16.478;2024-01-30T11:59:34;9.52;;;5.63;;
19593;SDS011;9944;48.240;16.478;2024-01-30T12:03:58;12.05;;;6.00;;
19593;SDS011;9944;48.240;16.478;2024-01-30T12:08:23;12.48;;;5.47;;
19593;SDS011;9944;48.240;16.478;2024-01-30T12:12:47;8.52;;;5.40;;
19593;SDS011;9944;48.240;16.478;2024-01-30T12:17:22;10.10;;;5.63;;
19593;SDS011;9944;48.240;16.478;2024-01-30T12:21:46;8.43;;;5.35;;
19593;SDS011;9944;48.240;16.478;2024-01-30T12:26:13;10.43;;;6.03;;
19593;SDS011;9944;48.240;16.478;2024-01-30T12:30:37;9.15;;;5.65;;
19593;SDS011;9944;48.240;16.478;2024-01-30T12:35:01;11.27;;;5.53;;
19593;SDS011;9944;48.240;16.478;2024-01-30T12:39:25;10.23;;;5.63;;
19593;SDS011;9944;48.240;16.478;2024-01-30T12:43:50;10.15;;;5.65;;
19593;SDS011;9944;48.240;16.478;2024-01-30T12:48:14;8.35;;;5.22;;
19593;SDS011;9944;48.240;16.478;2024-01-30T12:52:38;6.82;;;4.88;;
19593;SDS011;9944;48.240;16.478;2024-01-30T12:57:02;8.00;;;4.72;;
19593;SDS011;9944;48.240;16.478;2024-01-30T13:01:28;7.53;;;4.68;;
19593;SDS011;9944;48.240;16.478;2024-01-30T13:05:51;7.70;;;4.28;;
19593;SDS011;9944;48.240;16.478;2024-01-30T13:10:15;7.28;;;4.13;;
19593;SDS011;9944;48.240;16.478;2024-01-30T13:14:39;7.97;;;4.60;;
19593;SDS011;9944;48.240;16.478;2024-01-30T13:19:04;11.00;;;4.43;;
19593;SDS011;9944;48.240;16.478;2024-01-30T13:23:28;8.60;;;4.15;;
19593;SDS011;9944;48.240;16.478;2024-01-30T13:27:52;9.15;;;4.40;;
19593;SDS011;9944;48.240;16.478;2024-01-30T13:32:16;7.35;;;4.15;;
19593;SDS011;9944;48.240;16.478;2024-01-30T13:36:41;6.88;;;4.18;;
19593;SDS011;9944;48.240;16.478;2024-01-30T13:41:07;9.80;;;4.90;;
19593;SDS011;9944;48.240;16.478;2024-01-30T13:45:30;9.20;;;4.68;;
19593;SDS011;9944;48.240;16.478;2024-01-30T13:49:54;7.03;;;4.03;;
19593;SDS011;9944;48.240;16.478;2024-01-30T13:54:19;9.70;;;4.57;;
19593;SDS011;9944;48.240;16.478;2024-01-30T13:58:43;8.00;;;4.53;;
19593;SDS011;9944;48.240;16.478;2024-01-30T14:03:07;9.45;;;4.15;;
19593;SDS011;9944;48.240;16.478;2024-01-30T14:07:31;9.88;;;4.18;;
19593;SDS011;9944;48.240;16.478;2024-01-30T14:11:57;6.75;;;4.53;;
19593;SDS011;9944;48.240;16.478;2024-01-30T14:16:21;6.88;;;4.30;;
19593;SDS011;9944;48.240;16.478;2024-01-30T14:20:46;7.53;;;4.53;;
19593;SDS011;9944;48.240;16.478;2024-01-30T14:25:10;8.05;;;4.57;;
19593;SDS011;9944;48.240;16.478;2024-01-30T14:29:36;7.30;;;4.43;;
19593;SDS011;9944;48.240;16.478;2024-01-30T14:34:00;7.63;;;4.55;;
19593;SDS011;9944;48.240;16.478;2024-01-30T14:38:25;9.27;;;4.88;;
19593;SDS011;9944;48.240;16.478;2024-01-30T14:42:50;6.85;;;4.00;;
19593;SDS011;9944;48.240;16.478;2024-01-30T14:47:15;6.70;;;4.28;;
19593;SDS011;9944;48.240;16.478;2024-01-30T14:51:39;8.63;;;5.00;;
19593;SDS011;9944;48.240;16.478;2024-01-30T14:56:06;9.15;;;4.90;;
19593;SDS011;9944;48.240;16.478;2024-01-30T15:00:30;10.30;;;4.97;;
19593;SDS011;9944;48.240;16.478;2024-01-30T15:04:55;10.32;;;5.18;;
19593;SDS011;9944;48.240;16.478;2024-01-30T15:09:19;11.30;;;4.50;;
19593;SDS011;9944;48.240;16.478;2024-01-30T15:13:46;8.68;;;4.95;;
19593;SDS011;9944;48.240;16.478;2024-01-30T15:18:09;7.75;;;4.43;;
19593;SDS011;9944;48.240;16.478;2024-01-30T15:22:35;9.15;;;4.43;;
19593;SDS011;9944;48.240;16.478;2024-01-30T15:26:59;6.78;;;4.68;;
19593;SDS011;9944;48.240;16.478;2024-01-30T15:31:24;8.40;;;4.97;;
19593;SDS011;9944;48.240;16.478;2024-01-30T15:35:48;10.13;;;4.38;;
19593;SDS011;9944;48.240;16.478;2024-01-30T15:40:13;8.70;;;4.50;;
19593;SDS011;9944;48.240;16.478;2024-01-30T15:44:37;6.80;;;4.25;;
19593;SDS011;9944;48.240;16.478;2024-01-30T15:49:01;8.05;;;4.50;;
19593;SDS011;9944;48.240;16.478;2024-01-30T15:53:26;7.72;;;4.45;;
19593;SDS011;9944;48.240;16.478;2024-01-30T15:57:51;8.65;;;4.20;;
19593;SDS011;9944;48.240;16.478;2024-01-30T16:02:15;6.57;;;4.18;;
19593;SDS011;9944;48.240;16.478;2024-01-30T16:06:40;6.68;;;4.03;;
19593;SDS011;9944;48.240;16.478;2024-01-30T16:11:04;7.72;;;4.65;;
19593;SDS011;9944;48.240;16.478;2024-01-30T16:15:30;7.70;;;4.18;;
19593;SDS011;9944;48.240;16.478;2024-01-30T16:19:53;9.38;;;4.25;;
19593;SDS011;9944;48.240;16.478;2024-01-30T16:24:17;9.75;;;4.82;;
19593;SDS011;9944;48.240;16.478;2024-01-30T16:28:44;9.77;;;4.85;;
19593;SDS011;9944;48.240;16.478;2024-01-30T16:33:10;8.27;;;4.68;;
19593;SDS011;9944;48.240;16.478;2024-01-30T16:37:34;8.95;;;4.85;;
19593;SDS011;9944;48.240;16.478;2024-01-30T16:41:58;7.35;;;4.50;;
19593;SDS011;9944;48.240;16.478;2024-01-30T16:46:22;12.18;;;4.78;;
19593;SDS011;9944;48.240;16.478;2024-01-30T16:50:47;13.57;;;6.55;;
19593;SDS011;9944;48.240;16.478;2024-01-30T16:55:12;7.10;;;4.65;;
19593;SDS011;9944;48.240;16.478;2024-01-30T16:59:36;9.70;;;4.95;;
19593;SDS011;9944;48.240;16.478;2024-01-30T17:03:59;8.05;;;4.78;;
19593;SDS011;9944;48.240;16.478;2024-01-30T17:08:25;8.95;;;4.95;;
19593;SDS011;9944;48.240;16.478;2024-01-30T17:12:48;9.48;;;5.18;;
19593;SDS011;9944;48.240;16.478;2024-01-30T17:17:12;8.95;;;5.13;;
19593;SDS011;9944;48.240;16.478;2024-01-30T17:21:36;12.45;;;5.45;;
19593;SDS011;9944;48.240;16.478;2024-01-30T17:26:01;12.60;;;5.25;;
19593;SDS011;9944;48.240;16.478;2024-01-30T17:30:25;10.90;;;5.68;;
19593;SDS011;9944;48.240;16.478;2024-01-30T17:34:50;10.45;;;6.15;;
19593;SDS011;9944;48.240;16.478;2024-01-30T17:39:14;11.00;;;5.63;;
19593;SDS011;9944;48.240;16.478;2024-01-30T17:43:39;9.57;;;5.57;;
19593;SDS011;9944;48.240;16.478;2024-01-30T17:48:03;10.35;;;5.72;;
19593;SDS011;9944;48.240;16.478;2024-01-30T17:52:27;12.20;;;5.85;;
19593;SDS011;9944;48.240;16.478;2024-01-30T17:56:51;12.35;;;6.65;;
19593;SDS011;9944;48.240;16.478;2024-01-30T18:01:16;10.73;;;6.30;;
19593;SDS011;9944;48.240;16.478;2024-01-30T18:05:41;11.85;;;6.30;;
19593;SDS011;9944;48.240;16.478;2024-01-30T18:10:05;10.57;;;6.60;;
19593;SDS011;9944;48.240;16.478;2024-01-30T18:14:29;10.13;;;5.70;;
19593;SDS011;9944;48.240;16.478;2024-01-30T18:18:54;12.15;;;6.00;;
19593;SDS011;9944;48.240;16.478;2024-01-30T18:23:18;12.40;;;6.03;;
19593;SDS011;9944;48.240;16.478;2024-01-30T18:27:43;11.40;;;6.38;;
19593;SDS011;9944;48.240;16.478;2024-01-30T18:32:08;10.60;;;5.95;;
19593;SDS011;9944;48.240;16.478;2024-01-30T18:36:33;12.18;;;6.63;;
19593;SDS011;9944;48.240;16.478;2024-01-30T18:40:59;12.50;;;5.70;;
19593;SDS011;9944;48.240;16.478;2024-01-30T18:45:22;10.13;;;6.20;;
19593;SDS011;9944;48.240;16.478;2024-01-30T18:49:47;10.27;;;6.60;;
19593;SDS011;9944;48.240;16.478;2024-01-30T18:54:15;11.68;;;6.93;;
19593;SDS011;9944;48.240;16.478;2024-01-30T18:58:38;10.05;;;6.47;;
19593;SDS011;9944;48.240;16.478;2024-01-30T19:03:02;8.82;;;5.53;;
19593;SDS011;9944;48.240;16.478;2024-01-30T19:07:27;12.88;;;6.43;;
19593;SDS011;9944;48.240;16.478;2024-01-30T19:11:52;11.35;;;6.28;;
19593;SDS011;9944;48.240;16.478;2024-01-30T19:16:16;9.35;;;6.30;;
19593;SDS011;9944;48.240;16.478;2024-01-30T19:20:40;10.90;;;5.90;;
19593;SDS011;9944;48.240;16.478;2024-01-30T19:25:04;11.93;;;6.82;;
19593;SDS011;9944;48.240;16.478;2024-01-30T19:29:30;12.60;;;6.63;;
19593;SDS011;9944;48.240;16.478;2024-01-30T19:33:53;13.38;;;6.78;;
19593;SDS011;9944;48.240;16.478;2024-01-30T19:38:18;9.40;;;6.43;;
19593;SDS011;9944;48.240;16.478;2024-01-30T19:42:41;11.13;;;6.40;;
19593;SDS011;9944;48.240;16.478;2024-01-30T19:47:06;14.23;;;6.50;;
19593;SDS011;9944;48.240;16.478;2024-01-30T19:51:31;13.07;;;6.55;;
19593;SDS011;9944;48.240;16.478;2024-01-30T19:55:54;12.10;;;6.95;;
19593;SDS011;9944;48.240;16.478;2024-01-30T20:00:19;12.95;;;6.80;;
19593;SDS011;9944;48.240;16.478;2024-01-30T20:04:44;11.65;;;6.68;;
19593;SDS011;9944;48.240;16.478;2024-01-30T20:09:08;11.75;;;6.88;;
19593;SDS011;9944;48.240;16.478;2024-01-30T20:13:32;12.52;;;6.85;;
19593;SDS011;9944;48.240;16.478;2024-01-30T20:17:57;13.85;;;7.35;;
19593;SDS011;9944;48.240;16.478;2024-01-30T20:22:22;12.18;;;6.88;;
19593;SDS011;9944;48.240;16.478;2024-01-30T20:26:46;14.10;;;6.82;;
19593;SDS011;9944;48.240;16.478;2024-01-30T20:31:11;12.23;;;6.75;;
19593;SDS011;9944;48.240;16.478;2024-01-30T20:35:35;9.23;;;6.22;;
19593;SDS011;9944;48.240;16.478;2024-01-30T20:40:00;12.82;;;6.50;;
19593;SDS011;9944;48.240;16.478;2024-01-30T20:44:25;12.35;;;6.47;;
19593;SDS011;9944;48.240;16.478;2024-01-30T20:48:49;12.35;;;6.55;;
19593;SDS011;9944;48.240;16.478;2024-01-30T20:53:13;12.82;;;7.03;;
19593;SDS011;9944;48.240;16.478;2024-01-30T20:57:38;12.45;;;6.88;;
19593;SDS011;9944;48.240;16.478;2024-01-30T21:02:02;12.00;;;6.82;;
19593;SDS011;9944;48.240;16.478;2024-01-30T21:06:26;12.30;;;6.72;;
19593;SDS011;9944;48.240;16.478;2024-01-30T21:10:50;12.52;;;6.70;;
19593;SDS011;9944;48.240;16.478;2024-01-30T21:15:15;13.35;;;7.18;;
19593;SDS011;9944;48.240;16.478;2024-01-30T21:19:39;12.00;;;6.68;;
19593;SDS011;9944;48.240;16.478;2024-01-30T21:24:04;12.60;;;7.45;;
19593;SDS011;9944;48.240;16.478;2024-01-30T21:28:28;14.63;;;7.90;;
19593;SDS011;9944;48.240;16.478;2024-01-30T21:32:53;18.58;;;9.55;;
19593;SDS011;9944;48.240;16.478;2024-01-30T21:37:17;16.70;;;8.80;;
19593;SDS011;9944;48.240;16.478;2024-01-30T21:41:41;15.88;;;8.13;;
19593;SDS011;9944;48.240;16.478;2024-01-30T21:46:04;15.27;;;8.52;;
19593;SDS011;9944;48.240;16.478;2024-01-30T21:50:30;11.43;;;7.25;;
19593;SDS011;9944;48.240;16.478;2024-01-30T21:54:54;12.88;;;7.70;;
19593;SDS011;9944;48.240;16.478;2024-01-30T21:59:18;12.85;;;7.75;;
19593;SDS011;9944;48.240;16.478;2024-01-30T22:03:42;14.98;;;8.10;;
19593;SDS011;9944;48.240;16.478;2024-01-30T22:08:09;16.40;;;8.60;;
19593;SDS011;9944;48.240;16.478;2024-01-30T22:12:32;15.18;;;8.70;;
19593;SDS011;9944;48.240;16.478;2024-01-30T22:16:56;18.55;;;9.68;;
19593;SDS011;9944;48.240;16.478;2024-01-30T22:21:20;16.00;;;9.85;;
19593;SDS011;9944;48.240;16.478;2024-01-30T22:25:45;21.48;;;10.93;;
19593;SDS011;9944;48.240;16.478;2024-01-30T22:30:11;17.70;;;10.55;;
19593;SDS011;9944;48.240;16.478;2024-01-30T22:34:35;18.42;;;10.13;;
19593;SDS011;9944;48.240;16.478;2024-01-30T22:39:01;18.05;;;10.98;;
19593;SDS011;9944;48.240;16.478;2024-01-30T22:43:29;17.20;;;9.67;;
19593;SDS011;9944;48.240;16.478;2024-01-30T22:47:54;15.38;;;9.00;;
19593;SDS011;9944;48.240;16.478;2024-01-30T22:52:18;14.07;;;8.80;;
19593;SDS011;9944;48.240;16.478;2024-01-30T22:56:42;20.60;;;10.33;;
19593;SDS011;9944;48.240;16.478;2024-01-30T23:01:07;16.30;;;9.85;;
19593;SDS011;9944;48.240;16.478;2024-01-30T23:05:31;16.27;;;9.07;;
19593;SDS011;9944;48.240;16.478;2024-01-30T23:09:55;16.43;;;9.63;;
19593;SDS011;9944;48.240;16.478;2024-01-30T23:14:19;17.33;;;9.63;;
19593;SDS011;9944;48.240;16.478;2024-01-30T23:18:44;18.58;;;9.52;;
19593;SDS011;9944;48.240;16.478;2024-01-30T23:23:08;18.23;;;9.50;;
19593;SDS011;9944;48.240;16.478;2024-01-30T23:27:32;15.90;;;8.57;;
19593;SDS011;9944;48.240;16.478;2024-01-30T23:31:55;15.57;;;8.33;;
19593;SDS011;9944;48.240;16.478;2024-01-30T23:36:21;12.68;;;7.80;;
19593;SDS011;9944;48.240;16.478;2024-01-30T23:40:44;18.98;;;8.38;;
19593;SDS011;9944;48.240;16.478;2024-01-30T23:45:11;13.37;;;7.77;;
19593;SDS011;9944;48.240;16.478;2024-01-30T23:49:34;17.00;;;8.53;;
19593;SDS011;9944;48.240;16.478;2024-01-30T23:53:59;16.80;;;8.37;;
19593;SDS011;9944;48.240;16.478;2024-01-30T23:58:23;14.40;;;8.63;;
